createdAt,value
2018-02-07T00:01:28.690Z,33.80
2018-02-07T00:03:56.135Z,38.77
2018-02-07T00:06:24.338Z,37.73
2018-02-07T00:08:51.795Z,37.80
2018-02-07T00:11:19.996Z,33.27
2018-02-07T00:13:47.462Z,32.60
2018-02-07T00:16:14.895Z,27.97
2018-02-07T00:18:42.342Z,36.97
2018-02-07T00:21:09.794Z,29.17
2018-02-07T00:23:37.239Z,30.13
2018-02-07T00:26:04.686Z,34.70
2018-02-07T00:28:32.891Z,38.60
2018-02-07T00:31:00.331Z,30.90
2018-02-07T00:33:28.542Z,34.53
2018-02-07T00:35:55.992Z,42.80
2018-02-07T00:38:24.195Z,37.03
2018-02-07T00:40:51.635Z,34.40
2018-02-07T00:43:19.849Z,32.47
2018-02-07T00:45:47.307Z,33.17
2018-02-07T00:48:15.515Z,30.80
2018-02-07T00:50:42.967Z,28.57
2018-02-07T00:53:10.407Z,28.83
2018-02-07T00:55:37.854Z,33.97
2018-02-07T00:58:05.299Z,32.53
2018-02-07T01:00:32.743Z,33.17
2018-02-07T01:03:00.182Z,37.57
2018-02-07T01:05:27.623Z,31.77
2018-02-07T01:07:55.067Z,38.40
2018-02-07T01:10:22.511Z,33.67
2018-02-07T01:12:50.710Z,49.03
2018-02-07T01:15:18.166Z,34.27
2018-02-07T01:17:46.363Z,30.83
2018-02-07T01:20:13.807Z,39.83
2018-02-07T01:22:41.244Z,39.03
2018-02-07T01:25:09.458Z,33.87
2018-02-07T01:27:36.899Z,36.50
2018-02-07T01:30:04.343Z,30.27
2018-02-07T01:32:31.782Z,32.20
2018-02-07T01:34:59.996Z,27.20
2018-02-07T01:37:27.429Z,35.23
2018-02-07T01:39:54.875Z,41.77
2018-02-07T01:42:22.315Z,35.17
2018-02-07T01:44:50.531Z,34.30
2018-02-07T01:47:17.967Z,38.43
2018-02-07T01:49:45.411Z,32.70
2018-02-07T01:52:12.859Z,30.70
2018-02-07T01:54:41.071Z,37.37
2018-02-07T01:57:08.511Z,35.83
2018-02-07T01:59:35.958Z,32.97
2018-02-07T02:02:03.398Z,30.43
2018-02-07T02:04:31.608Z,41.67
2018-02-07T02:06:59.055Z,40.10
2018-02-07T02:09:26.500Z,38.10
2018-02-07T02:11:53.946Z,41.87
2018-02-07T02:14:21.386Z,38.57
2018-02-07T02:16:48.828Z,37.77
2018-02-07T02:19:16.263Z,37.07
2018-02-07T02:21:43.711Z,37.60
2018-02-07T02:24:11.151Z,59.67
2018-02-07T02:26:38.599Z,37.80
2018-02-07T02:29:06.039Z,42.13
2018-02-07T02:31:33.483Z,34.63
2018-02-07T02:34:01.688Z,46.83
2018-02-07T02:36:41.035Z,42.33
2018-02-07T02:39:09.249Z,42.23
2018-02-07T02:41:37.446Z,41.37
2018-02-07T02:44:05.661Z,40.47
2018-02-07T02:46:33.103Z,41.53
2018-02-07T02:49:00.546Z,33.00
2018-02-07T02:51:27.992Z,44.43
2018-02-07T02:53:55.432Z,42.57
2018-02-07T02:56:22.880Z,37.60
2018-02-07T02:58:50.324Z,41.20
2018-02-07T03:01:18.535Z,39.33
2018-02-07T03:03:45.979Z,33.30
2018-02-07T03:06:13.422Z,33.57
2018-02-07T03:08:40.868Z,42.77
2018-02-07T03:11:09.075Z,42.17
2018-02-07T03:13:36.523Z,38.20
2018-02-07T03:16:03.971Z,37.90
2018-02-07T03:18:31.417Z,39.87
2018-02-07T03:20:58.863Z,36.70
2018-02-07T03:23:26.303Z,38.63
2018-02-07T03:25:53.751Z,35.30
2018-02-07T03:28:21.187Z,39.30
2018-02-07T03:30:48.632Z,35.70
2018-02-07T03:33:16.079Z,34.80
2018-02-07T03:35:44.291Z,38.07
2018-02-07T03:38:12.496Z,38.50
2018-02-07T03:40:39.948Z,38.43
2018-02-07T03:43:07.375Z,35.27
2018-02-07T03:45:34.819Z,36.27
2018-02-07T03:48:03.044Z,31.70
2018-02-07T03:50:30.488Z,36.40
2018-02-07T03:52:57.927Z,40.00
2018-02-07T03:55:25.379Z,40.57
2018-02-07T03:57:52.830Z,44.03
2018-02-07T04:00:20.266Z,39.17
2018-02-07T04:02:47.703Z,42.37
2018-02-07T04:05:15.920Z,52.77
2018-02-07T04:07:43.355Z,45.97
2018-02-07T04:10:10.799Z,56.80
2018-02-07T04:12:38.269Z,49.27
2018-02-07T04:15:05.712Z,50.77
2018-02-07T04:17:33.928Z,49.60
2018-02-07T04:20:02.127Z,52.73
2018-02-07T04:22:30.335Z,48.30
2018-02-07T04:24:57.774Z,51.50
2018-02-07T04:27:25.240Z,48.80
2018-02-07T04:29:52.675Z,47.83
2018-02-07T04:32:20.127Z,46.90
2018-02-07T04:34:47.567Z,48.30
2018-02-07T04:37:15.017Z,42.73
2018-02-07T04:39:43.223Z,51.00
2018-02-07T04:42:10.671Z,51.40
2018-02-07T04:44:38.111Z,43.30
2018-02-07T04:47:05.555Z,47.57
2018-02-07T04:49:32.999Z,48.07
2018-02-07T04:52:00.448Z,56.73
2018-02-07T04:54:27.894Z,41.50
2018-02-07T04:56:56.107Z,48.53
2018-02-07T04:59:23.548Z,53.73
2018-02-07T05:01:50.991Z,50.23
2018-02-07T05:04:18.431Z,44.73
2018-02-07T05:06:46.643Z,44.80
2018-02-07T05:09:14.075Z,46.13
2018-02-07T05:11:41.522Z,44.93
2018-02-07T05:14:08.972Z,45.03
2018-02-07T05:16:37.179Z,48.63
2018-02-07T05:19:04.628Z,46.90
2018-02-07T05:21:32.075Z,43.30
2018-02-07T05:23:59.515Z,61.50
2018-02-07T05:26:26.963Z,51.43
2018-02-07T05:28:54.408Z,56.93
2018-02-07T05:31:21.862Z,45.03
2018-02-07T05:33:49.299Z,59.23
2018-02-07T05:36:16.738Z,53.50
2018-02-07T05:38:44.188Z,55.00
2018-02-07T05:41:12.403Z,65.93
2018-02-07T05:43:39.839Z,70.20
2018-02-07T05:46:07.287Z,56.20
2018-02-07T05:48:34.728Z,63.47
2018-02-07T05:51:03.685Z,55.77
2018-02-07T05:53:31.118Z,63.87
2018-02-07T05:55:59.327Z,60.90
2018-02-07T05:58:27.531Z,66.87
2018-02-07T06:00:55.738Z,64.97
2018-02-07T06:03:23.180Z,54.53
2018-02-07T06:05:50.618Z,68.03
2018-02-07T06:08:18.067Z,66.37
2018-02-07T06:10:46.270Z,66.97
2018-02-07T06:13:14.479Z,64.67
2018-02-07T06:15:41.925Z,71.67
2018-02-07T06:18:09.376Z,66.07
2018-02-07T06:20:36.811Z,65.43
2018-02-07T06:23:04.259Z,67.67
2018-02-07T06:25:31.691Z,56.00
2018-02-07T06:27:59.144Z,69.53
2018-02-07T06:30:27.363Z,67.00
2018-02-07T06:32:55.560Z,62.50
2018-02-07T06:35:22.999Z,62.93
2018-02-07T06:37:50.448Z,68.17
2018-02-07T06:40:17.888Z,56.57
2018-02-07T06:42:46.099Z,68.00
2018-02-07T06:45:13.535Z,63.60
2018-02-07T06:47:40.987Z,62.03
2018-02-07T06:50:08.439Z,72.07
2018-02-07T06:52:35.894Z,58.80
2018-02-07T06:55:04.091Z,61.50
2018-02-07T06:57:32.310Z,57.30
2018-02-07T06:59:59.752Z,62.87
2018-02-07T07:02:27.196Z,108.17
2018-02-07T07:04:54.635Z,67.90
2018-02-07T07:07:22.852Z,58.33
2018-02-07T07:09:50.295Z,63.77
2018-02-07T07:12:17.734Z,55.07
2018-02-07T07:14:45.181Z,59.77
2018-02-07T07:17:13.399Z,65.27
2018-02-07T07:19:40.848Z,58.63
2018-02-07T07:22:08.295Z,58.00
2018-02-07T07:24:35.740Z,69.97
2018-02-07T07:27:03.179Z,68.37
2018-02-07T07:29:30.624Z,66.67
2018-02-07T07:31:58.076Z,209.23
2018-02-07T07:34:26.283Z,82.17
2018-02-07T07:36:53.733Z,62.20
2018-02-07T07:39:21.168Z,64.20
2018-02-07T07:41:48.615Z,57.57
2018-02-07T07:44:16.824Z,67.43
2018-02-07T07:46:44.276Z,61.37
2018-02-07T07:49:11.721Z,96.80
2018-02-07T07:51:39.168Z,110.30
2018-02-07T07:54:06.616Z,72.27
2018-02-07T07:56:34.071Z,66.40
2018-02-07T07:59:01.512Z,63.60
2018-02-07T08:01:29.731Z,62.07
2018-02-07T08:03:57.172Z,56.00
2018-02-07T08:06:24.619Z,65.40
2018-02-07T08:08:52.071Z,61.30
2018-02-07T08:11:19.512Z,53.07
2018-02-07T08:13:46.955Z,64.63
2018-02-07T08:16:14.395Z,68.43
2018-02-07T08:18:41.896Z,52.93
2018-02-07T08:21:09.278Z,89.13
2018-02-07T08:23:36.728Z,80.33
2018-02-07T08:26:04.172Z,93.20
2018-02-07T08:28:31.623Z,68.73
2018-02-07T08:30:59.828Z,54.90
2018-02-07T08:33:28.050Z,69.40
2018-02-07T08:35:55.489Z,64.17
2018-02-07T08:38:22.941Z,67.43
2018-02-07T08:40:50.376Z,70.00
2018-02-07T08:43:17.815Z,72.77
2018-02-07T08:45:45.255Z,68.63
2018-02-07T08:48:12.704Z,62.53
2018-02-07T08:50:40.903Z,62.33
2018-02-07T08:53:09.115Z,82.77
2018-02-07T08:55:36.550Z,67.47
2018-02-07T08:58:03.991Z,78.90
2018-02-07T09:00:31.431Z,77.37
2018-02-07T09:02:59.644Z,80.23
2018-02-07T09:05:27.847Z,78.33
2018-02-07T09:07:56.070Z,58.67
2018-02-07T09:10:23.504Z,70.90
2018-02-07T09:12:50.951Z,73.57
2018-02-07T09:15:18.391Z,79.27
2018-02-07T09:17:45.835Z,70.40
2018-02-07T09:20:13.275Z,61.60
2018-02-07T09:22:40.731Z,67.13
2018-02-07T09:25:08.935Z,67.83
2018-02-07T09:27:36.383Z,76.93
2018-02-07T09:30:03.824Z,62.90
2018-02-07T09:32:31.271Z,76.67
2018-02-07T09:34:58.710Z,68.80
2018-02-07T09:37:26.159Z,64.07
2018-02-07T09:39:53.599Z,66.07
2018-02-07T09:42:21.811Z,62.57
2018-02-07T09:44:50.016Z,66.20
2018-02-07T09:47:17.455Z,58.53
2018-02-07T09:49:44.899Z,78.30
2018-02-07T09:52:12.335Z,65.47
2018-02-07T09:54:40.548Z,68.13
2018-02-07T09:57:08.751Z,75.53
2018-02-07T09:59:36.191Z,66.40
2018-02-07T10:02:03.632Z,58.77
2018-02-07T10:04:31.079Z,73.20
2018-02-07T10:06:59.287Z,70.60
2018-02-07T10:09:26.736Z,61.40
2018-02-07T10:11:54.175Z,63.60
2018-02-07T10:14:21.627Z,66.67
2018-02-07T10:16:49.836Z,60.83
2018-02-07T10:19:17.279Z,55.80
2018-02-07T10:21:44.710Z,76.10
2018-02-07T10:24:12.164Z,62.07
2018-02-07T10:26:40.368Z,57.57
2018-02-07T10:29:08.584Z,60.73
2018-02-07T10:31:36.020Z,64.20
2018-02-07T10:34:03.469Z,63.27
2018-02-07T10:36:30.908Z,65.47
2018-02-07T10:38:58.355Z,74.73
2018-02-07T10:41:25.796Z,60.87
2018-02-07T10:43:53.249Z,60.70
2018-02-07T10:46:21.455Z,66.83
2018-02-07T10:48:48.899Z,67.83
2018-02-07T10:51:16.335Z,72.93
2018-02-07T10:53:43.784Z,71.50
2018-02-07T10:56:11.991Z,64.37
2018-02-07T10:58:40.203Z,68.90
2018-02-07T11:01:07.643Z,65.93
2018-02-07T11:03:35.087Z,54.70
2018-02-07T11:06:02.534Z,77.23
2018-02-07T11:08:29.981Z,61.50
2018-02-07T11:10:57.419Z,68.07
2018-02-07T11:13:24.858Z,65.47
2018-02-07T11:15:53.063Z,63.93
2018-02-07T11:18:21.280Z,67.33
2018-02-07T11:20:48.714Z,61.73
2018-02-07T11:23:16.158Z,55.53
2018-02-07T11:25:43.599Z,63.67
2018-02-07T11:28:11.809Z,68.63
2018-02-07T11:30:40.017Z,64.33
2018-02-07T11:33:07.455Z,62.77
2018-02-07T11:35:34.886Z,68.07
2018-02-07T11:38:02.343Z,91.57
2018-02-07T11:40:30.551Z,69.00
2018-02-07T11:42:57.999Z,63.17
2018-02-07T11:45:25.431Z,67.77
2018-02-07T11:47:52.867Z,63.30
2018-02-07T11:50:20.320Z,65.40
2018-02-07T11:52:47.758Z,69.63
2018-02-07T11:55:15.200Z,64.40
2018-02-07T11:57:42.640Z,70.23
2018-02-07T12:00:10.089Z,75.53
2018-02-07T12:02:38.292Z,66.37
2018-02-07T12:05:06.504Z,81.77
2018-02-07T12:07:33.950Z,68.07
2018-02-07T12:10:01.394Z,76.87
2018-02-07T12:12:28.830Z,67.50
2018-02-07T12:14:56.276Z,68.27
2018-02-07T12:17:23.716Z,76.33
2018-02-07T12:19:51.157Z,67.03
2018-02-07T12:22:19.355Z,69.77
2018-02-07T12:24:47.571Z,65.90
2018-02-07T12:27:15.012Z,58.77
2018-02-07T12:29:42.455Z,62.07
2018-02-07T12:32:09.891Z,59.43
2018-02-07T12:34:37.332Z,59.53
2018-02-07T12:37:04.772Z,47.90
2018-02-07T12:39:32.220Z,69.40
2018-02-07T12:41:59.663Z,57.10
2018-02-07T12:44:27.111Z,60.40
2018-02-07T12:46:55.315Z,63.03
2018-02-07T12:49:22.759Z,62.93
2018-02-07T12:51:50.205Z,59.07
2018-02-07T12:54:17.642Z,65.83
2018-02-07T12:56:45.850Z,67.53
2018-02-07T12:59:13.294Z,64.60
2018-02-07T13:01:40.735Z,61.00
2018-02-07T13:04:08.187Z,61.20
2018-02-07T13:06:36.392Z,65.60
2018-02-07T13:09:03.851Z,61.53
2018-02-07T13:11:31.298Z,69.33
2018-02-07T13:13:58.743Z,64.37
2018-02-07T13:16:26.179Z,75.70
2018-02-07T13:18:53.624Z,73.83
2018-02-07T13:21:21.065Z,64.50
2018-02-07T13:23:48.519Z,68.40
2018-02-07T13:26:15.961Z,57.87
2018-02-07T13:28:43.406Z,62.20
2018-02-07T13:31:10.844Z,67.20
2018-02-07T13:33:38.295Z,60.77
2018-02-07T13:36:05.732Z,60.13
2018-02-07T13:38:33.176Z,66.17
2018-02-07T13:41:01.384Z,59.80
2018-02-07T13:43:28.830Z,73.10
2018-02-07T13:45:56.262Z,62.80
2018-02-07T13:48:23.707Z,63.90
2018-02-07T13:50:51.151Z,67.23
2018-02-07T13:53:18.592Z,59.53
2018-02-07T13:55:46.035Z,63.10
2018-02-07T13:58:13.474Z,70.77
2018-02-07T14:00:46.507Z,64.30
2018-02-07T14:03:13.942Z,56.70
2018-02-07T14:05:41.387Z,58.53
2018-02-07T14:08:08.823Z,66.97
2018-02-07T14:10:36.279Z,62.23
2018-02-07T14:13:04.483Z,48.60
2018-02-07T14:15:31.938Z,64.97
2018-02-07T14:17:59.375Z,74.77
2018-02-07T14:20:26.815Z,59.83
2018-02-07T14:22:55.019Z,64.10
2018-02-07T14:25:23.235Z,65.03
2018-02-07T14:27:50.671Z,63.03
2018-02-07T14:30:18.115Z,59.73
2018-02-07T14:32:45.550Z,69.10
2018-02-07T14:35:13.767Z,63.10
2018-02-07T14:37:41.207Z,71.47
2018-02-07T14:40:08.664Z,60.47
2018-02-07T14:42:36.100Z,61.20
2018-02-07T14:45:03.548Z,53.37
2018-02-07T14:47:30.987Z,64.67
2018-02-07T14:49:58.459Z,61.10
2018-02-07T14:52:25.895Z,57.30
2018-02-07T14:54:54.109Z,53.30
2018-02-07T14:57:22.318Z,70.77
2018-02-07T14:59:49.767Z,63.60
2018-02-07T15:02:17.207Z,63.30
2018-02-07T15:04:44.655Z,59.90
2018-02-07T15:07:12.863Z,71.17
2018-02-07T15:09:40.310Z,65.53
2018-02-07T15:12:07.798Z,58.53
2018-02-07T15:14:35.199Z,58.60
2018-02-07T15:17:02.648Z,60.90
2018-02-07T15:19:30.095Z,67.97
2018-02-07T15:21:57.528Z,70.23
2018-02-07T15:24:25.745Z,60.43
2018-02-07T15:26:53.205Z,60.23
2018-02-07T15:29:20.631Z,62.90
2018-02-07T15:31:48.074Z,59.83
2018-02-07T15:34:16.283Z,65.80
2018-02-07T15:36:43.724Z,82.47
2018-02-07T15:39:11.175Z,70.97
2018-02-07T15:41:38.611Z,69.67
2018-02-07T15:44:06.850Z,74.13
2018-02-07T15:46:34.278Z,68.57
2018-02-07T15:49:01.720Z,70.50
2018-02-07T15:51:29.168Z,75.07
2018-02-07T15:53:56.609Z,73.43
2018-02-07T15:56:24.060Z,76.33
2018-02-07T15:58:51.499Z,81.13
2018-02-07T16:01:19.762Z,82.30
2018-02-07T16:03:47.151Z,76.87
2018-02-07T16:06:14.602Z,66.73
2018-02-07T16:08:42.036Z,85.63
2018-02-07T16:11:10.251Z,79.07
2018-02-07T16:13:37.695Z,64.07
2018-02-07T16:16:05.138Z,65.67
2018-02-07T16:18:32.579Z,77.00
2018-02-07T16:21:00.798Z,71.60
2018-02-07T16:23:28.222Z,66.53
2018-02-07T16:25:55.671Z,79.00
2018-02-07T16:28:23.111Z,83.23
2018-02-07T16:30:51.327Z,95.80
2018-02-07T16:33:18.768Z,66.87
2018-02-07T16:35:46.211Z,69.83
2018-02-07T16:38:13.695Z,58.50
2018-02-07T16:40:41.127Z,82.30
2018-02-07T16:43:09.340Z,84.87
2018-02-07T16:45:37.551Z,72.07
2018-02-07T16:48:04.990Z,64.17
2018-02-07T16:50:32.435Z,67.43
2018-02-07T16:52:59.871Z,69.83
2018-02-07T16:55:28.120Z,72.47
2018-02-07T16:57:55.556Z,76.17
2018-02-07T17:00:23.766Z,82.47
2018-02-07T17:02:51.207Z,74.87
2018-02-07T17:05:18.661Z,72.37
2018-02-07T17:07:46.096Z,80.93
2018-02-07T17:10:14.311Z,77.83
2018-02-07T17:12:41.755Z,72.83
2018-02-07T17:15:09.199Z,86.20
2018-02-07T17:17:36.641Z,106.97
2018-02-07T17:20:04.859Z,105.50
2018-02-07T17:22:32.300Z,136.13
2018-02-07T17:24:59.747Z,92.63
2018-02-07T17:27:27.183Z,88.23
2018-02-07T17:29:54.631Z,102.70
2018-02-07T17:32:22.071Z,76.37
2018-02-07T17:34:49.537Z,89.87
2018-02-07T17:37:16.981Z,92.97
2018-02-07T17:39:44.407Z,96.40
2018-02-07T17:42:11.857Z,77.80
2018-02-07T17:44:40.063Z,101.00
2018-02-07T17:47:08.279Z,79.67
2018-02-07T17:49:35.719Z,75.83
2018-02-07T17:52:03.171Z,78.00
2018-02-07T17:54:30.613Z,88.53
2018-02-07T17:56:58.055Z,74.87
2018-02-07T17:59:25.495Z,69.87
2018-02-07T18:01:52.939Z,80.10
2018-02-07T18:04:21.147Z,90.57
2018-02-07T18:06:49.355Z,83.17
2018-02-07T18:09:16.795Z,95.50
2018-02-07T18:11:44.240Z,89.23
2018-02-07T18:14:11.685Z,104.73
2018-02-07T18:16:39.891Z,79.97
2018-02-07T18:19:07.331Z,117.60
2018-02-07T18:21:34.779Z,96.17
2018-02-07T18:24:02.219Z,74.77
2018-02-07T18:26:29.676Z,81.30
2018-02-07T18:28:57.115Z,79.33
2018-02-07T18:31:24.558Z,77.63
2018-02-07T18:33:52.759Z,72.87
2018-02-07T18:36:20.967Z,88.67
2018-02-07T18:38:48.399Z,78.33
2018-02-07T18:41:15.847Z,80.47
2018-02-07T18:43:43.285Z,73.90
2018-02-07T18:46:10.723Z,80.77
2018-02-07T18:48:38.160Z,64.07
2018-02-07T18:51:06.379Z,73.23
2018-02-07T18:53:33.819Z,78.47
2018-02-07T18:56:01.263Z,79.00
2018-02-07T18:58:28.707Z,75.93
2018-02-07T19:00:56.915Z,74.80
2018-02-07T19:03:24.351Z,71.73
2018-02-07T19:05:51.799Z,74.23
2018-02-07T19:08:19.240Z,87.17
2018-02-07T19:10:47.460Z,84.77
2018-02-07T19:13:14.883Z,89.47
2018-02-07T19:15:42.327Z,77.37
2018-02-07T19:18:09.759Z,81.00
2018-02-07T19:20:37.234Z,75.47
2018-02-07T19:23:05.436Z,79.27
2018-02-07T19:25:33.639Z,82.77
2018-02-07T19:28:01.847Z,86.33
2018-02-07T19:30:29.283Z,82.97
2018-02-07T19:32:56.727Z,83.43
2018-02-07T19:35:24.177Z,80.63
2018-02-07T19:37:52.379Z,77.07
2018-02-07T19:40:20.584Z,92.40
2018-02-07T19:42:48.800Z,105.33
2018-02-07T19:45:16.232Z,95.57
2018-02-07T19:47:43.670Z,84.60
2018-02-07T19:50:11.112Z,97.73
2018-02-07T19:52:38.559Z,82.37
2018-02-07T19:55:05.991Z,87.37
2018-02-07T19:57:34.196Z,90.90
2018-02-07T20:00:01.627Z,81.10
2018-02-07T20:02:29.067Z,96.93
2018-02-07T20:04:56.507Z,90.83
2018-02-07T20:07:23.951Z,75.73
2018-02-07T20:09:51.391Z,83.77
2018-02-07T20:12:19.598Z,89.43
2018-02-07T20:14:47.850Z,76.10
2018-02-07T20:17:16.019Z,101.57
2018-02-07T20:19:43.459Z,87.93
2018-02-07T20:22:10.898Z,85.77
2018-02-07T20:24:38.340Z,84.60
2018-02-07T20:27:06.551Z,85.63
2018-02-07T20:29:33.987Z,86.63
2018-02-07T20:32:01.435Z,78.90
2018-02-07T20:34:28.875Z,82.97
2018-02-07T20:36:56.320Z,85.80
2018-02-07T20:39:23.764Z,109.20
2018-02-07T20:41:52.031Z,79.27
2018-02-07T20:44:19.471Z,79.67
2018-02-07T20:46:46.911Z,82.20
2018-02-07T20:49:15.117Z,73.77
2018-02-07T20:51:43.318Z,87.43
2018-02-07T20:54:10.798Z,81.53
2018-02-07T20:56:38.995Z,74.80
2018-02-07T20:59:07.196Z,82.80
2018-02-07T21:01:34.708Z,83.23
2018-02-07T21:04:02.143Z,79.23
2018-02-07T21:06:30.346Z,77.03
2018-02-07T21:08:58.552Z,78.47
2018-02-07T21:11:26.759Z,80.00
2018-02-07T21:13:54.206Z,81.57
2018-02-07T21:16:21.643Z,72.33
2018-02-07T21:18:49.075Z,73.73
2018-02-07T21:21:16.557Z,84.40
2018-02-07T21:23:43.999Z,93.07
2018-02-07T21:26:11.447Z,81.10
2018-02-07T21:28:38.892Z,76.83
2018-02-07T21:31:06.323Z,79.20
2018-02-07T21:33:33.763Z,82.93
2018-02-07T21:36:01.963Z,72.07
2018-02-07T21:38:30.183Z,87.80
2018-02-07T21:40:57.627Z,76.63
2018-02-07T21:43:25.072Z,71.17
2018-02-07T21:45:52.506Z,74.03
2018-02-07T21:48:20.715Z,79.67
2018-02-07T21:50:48.915Z,82.50
2018-02-07T21:53:16.355Z,75.73
2018-02-07T21:55:43.791Z,77.37
2018-02-07T21:58:11.239Z,76.03
2018-02-07T22:00:38.666Z,74.53
2018-02-07T22:03:06.119Z,77.73
2018-02-07T22:05:34.316Z,75.93
2018-02-07T22:08:02.532Z,72.07
2018-02-07T22:10:29.959Z,86.17
2018-02-07T22:12:57.402Z,77.93
2018-02-07T22:15:24.838Z,78.13
2018-02-07T22:17:53.060Z,81.83
2018-02-07T22:20:20.499Z,87.50
2018-02-07T22:22:47.947Z,85.83
2018-02-07T22:25:15.408Z,88.70
2018-02-07T22:27:43.599Z,88.33
2018-02-07T22:30:11.799Z,89.53
2018-02-07T22:32:39.243Z,81.47
2018-02-07T22:35:06.680Z,79.23
2018-02-07T22:37:34.120Z,85.80
2018-02-07T22:40:02.329Z,80.40
2018-02-07T22:42:30.540Z,83.50
2018-02-07T22:44:57.981Z,87.80
2018-02-07T22:47:25.435Z,76.73
2018-02-07T22:49:52.879Z,81.20
2018-02-07T22:52:20.327Z,92.90
2018-02-07T22:54:47.759Z,80.97
2018-02-07T22:57:15.243Z,75.70
2018-02-07T22:59:42.735Z,66.57
2018-02-07T23:02:10.183Z,83.47
2018-02-07T23:04:38.383Z,93.27
2018-02-07T23:07:05.828Z,76.93
2018-02-07T23:09:33.276Z,70.97
2018-02-07T23:12:00.711Z,78.70
2018-02-07T23:14:28.915Z,98.33
2018-02-07T23:16:57.135Z,86.27
2018-02-07T23:19:24.574Z,74.57
2018-02-07T23:21:52.015Z,79.10
2018-02-07T23:24:19.463Z,79.80
2018-02-07T23:26:46.911Z,71.00
2018-02-07T23:29:14.367Z,75.40
2018-02-07T23:31:41.807Z,78.13
2018-02-07T23:34:09.259Z,78.57
2018-02-07T23:36:36.699Z,68.97
2018-02-07T23:39:04.147Z,77.30
2018-02-07T23:41:31.589Z,75.33
2018-02-07T23:43:59.036Z,83.27
2018-02-07T23:46:26.491Z,89.27
2018-02-07T23:48:53.939Z,81.10
2018-02-07T23:51:21.411Z,68.73
2018-02-07T23:53:48.851Z,76.03
2018-02-07T23:56:16.299Z,93.60
2018-02-07T23:58:44.511Z,81.87
